sensor_id;sensor_type;location;lat;lon;timestamp;temperature;humidity
68098;DHT22;54886;47.036;15.466;2023-07-30T00:01:57;20.79;77.28
68098;DHT22;54886;47.036;15.466;2023-07-30T00:04:22;20.81;79.06
68098;DHT22;54886;47.036;15.466;2023-07-30T00:06:49;20.74;79.52
68098;DHT22;54886;47.036;15.466;2023-07-30T00:09:14;20.72;78.69
68098;DHT22;54886;47.036;15.466;2023-07-30T00:15:01;20.78;78.08
68098;DHT22;54886;47.036;15.466;2023-07-30T00:17:27;20.79;77.64
68098;DHT22;54886;47.036;15.466;2023-07-30T00:19:52;20.71;79.31
68098;DHT22;54886;47.036;15.466;2023-07-30T00:22:18;20.69;79.41
68098;DHT22;54886;47.036;15.466;2023-07-30T00:24:43;20.72;76.33
68098;DHT22;54886;47.036;15.466;2023-07-30T00:30:31;20.63;80.09
68098;DHT22;54886;47.036;15.466;2023-07-30T00:32:56;20.69;77.25
68098;DHT22;54886;47.036;15.466;2023-07-30T00:35:22;20.72;78.65
68098;DHT22;54886;47.036;15.466;2023-07-30T00:37:48;20.71;79.51
68098;DHT22;54886;47.036;15.466;2023-07-30T00:43:35;20.67;79.56
68098;DHT22;54886;47.036;15.466;2023-07-30T00:49:22;20.57;80.05
68098;DHT22;54886;47.036;15.466;2023-07-30T00:55:10;20.50;79.91
68098;DHT22;54886;47.036;15.466;2023-07-30T01:00:58;20.45;80.75
68098;DHT22;54886;47.036;15.466;2023-07-30T01:03:24;20.41;80.34
68098;DHT22;54886;47.036;15.466;2023-07-30T01:05:50;20.45;79.83
68098;DHT22;54886;47.036;15.466;2023-07-30T01:08:16;20.51;79.41
68098;DHT22;54886;47.036;15.466;2023-07-30T01:10:42;20.51;78.50
68098;DHT22;54886;47.036;15.466;2023-07-30T01:16:30;20.51;78.51
68098;DHT22;54886;47.036;15.466;2023-07-30T01:18:55;20.45;80.06
68098;DHT22;54886;47.036;15.466;2023-07-30T01:24:43;20.52;76.16
68098;DHT22;54886;47.036;15.466;2023-07-30T01:30:38;20.61;79.42
68098;DHT22;54886;47.036;15.466;2023-07-30T01:36:28;20.40;80.02
68098;DHT22;54886;47.036;15.466;2023-07-30T01:42:15;20.45;78.14
68098;DHT22;54886;47.036;15.466;2023-07-30T01:44:41;20.41;80.08
68098;DHT22;54886;47.036;15.466;2023-07-30T01:47:07;20.43;79.55
68098;DHT22;54886;47.036;15.466;2023-07-30T01:49:33;20.44;79.96
68098;DHT22;54886;47.036;15.466;2023-07-30T01:51:59;20.43;79.25
68098;DHT22;54886;47.036;15.466;2023-07-30T01:54:25;20.36;81.12
68098;DHT22;54886;47.036;15.466;2023-07-30T01:56:51;20.41;78.94
68098;DHT22;54886;47.036;15.466;2023-07-30T02:02:38;20.40;80.31
68098;DHT22;54886;47.036;15.466;2023-07-30T02:05:04;20.33;79.83
68098;DHT22;54886;47.036;15.466;2023-07-30T02:07:29;20.39;79.50
68098;DHT22;54886;47.036;15.466;2023-07-30T02:09:55;20.37;77.90
68098;DHT22;54886;47.036;15.466;2023-07-30T02:12:21;20.37;80.28
68098;DHT22;54886;47.036;15.466;2023-07-30T02:18:09;20.39;78.58
68098;DHT22;54886;47.036;15.466;2023-07-30T02:20:35;20.39;77.18
68098;DHT22;54886;47.036;15.466;2023-07-30T02:23:01;20.40;79.28
68098;DHT22;54886;47.036;15.466;2023-07-30T02:25:26;20.40;77.57
68098;DHT22;54886;47.036;15.466;2023-07-30T02:27:52;20.44;77.77
68098;DHT22;54886;47.036;15.466;2023-07-30T02:30:17;20.37;80.31
68098;DHT22;54886;47.036;15.466;2023-07-30T02:32:43;20.40;79.59
68098;DHT22;54886;47.036;15.466;2023-07-30T02:38:30;20.37;78.93
68098;DHT22;54886;47.036;15.466;2023-07-30T02:40:56;20.30;78.95
68098;DHT22;54886;47.036;15.466;2023-07-30T02:46:43;20.17;79.63
68098;DHT22;54886;47.036;15.466;2023-07-30T02:52:30;20.16;78.53
68098;DHT22;54886;47.036;15.466;2023-07-30T02:58:17;20.19;78.34
68098;DHT22;54886;47.036;15.466;2023-07-30T03:04:05;20.27;76.32
68098;DHT22;54886;47.036;15.466;2023-07-30T03:06:31;20.30;76.24
68098;DHT22;54886;47.036;15.466;2023-07-30T03:08:57;20.24;79.75
68098;DHT22;54886;47.036;15.466;2023-07-30T03:11:23;20.26;78.17
68098;DHT22;54886;47.036;15.466;2023-07-30T03:13:48;20.27;77.46
68098;DHT22;54886;47.036;15.466;2023-07-30T03:19:36;20.30;78.17
68098;DHT22;54886;47.036;15.466;2023-07-30T03:22:01;20.22;80.40
68098;DHT22;54886;47.036;15.466;2023-07-30T03:24:27;20.26;78.29
68098;DHT22;54886;47.036;15.466;2023-07-30T03:26:53;20.24;79.03
68098;DHT22;54886;47.036;15.466;2023-07-30T03:29:18;20.26;80.02
68098;DHT22;54886;47.036;15.466;2023-07-30T03:35:06;20.23;79.00
68098;DHT22;54886;47.036;15.466;2023-07-30T03:37:31;20.27;77.63
68098;DHT22;54886;47.036;15.466;2023-07-30T03:39:57;20.24;78.98
68098;DHT22;54886;47.036;15.466;2023-07-30T03:42:23;20.26;80.56
68098;DHT22;54886;47.036;15.466;2023-07-30T03:44:48;20.17;81.85
68098;DHT22;54886;47.036;15.466;2023-07-30T03:47:14;20.19;77.92
68098;DHT22;54886;47.036;15.466;2023-07-30T03:49:39;20.24;78.57
68098;DHT22;54886;47.036;15.466;2023-07-30T03:52:05;20.23;80.69
68098;DHT22;54886;47.036;15.466;2023-07-30T03:54:31;20.20;81.53
68098;DHT22;54886;47.036;15.466;2023-07-30T04:00:18;20.16;79.91
68098;DHT22;54886;47.036;15.466;2023-07-30T04:02:44;20.16;80.08
68098;DHT22;54886;47.036;15.466;2023-07-30T04:05:09;20.16;80.10
68098;DHT22;54886;47.036;15.466;2023-07-30T04:07:35;20.14;79.27
68098;DHT22;54886;47.036;15.466;2023-07-30T04:10:01;20.14;80.14
68098;DHT22;54886;47.036;15.466;2023-07-30T04:15:48;20.08;80.42
68098;DHT22;54886;47.036;15.466;2023-07-30T04:18:14;20.09;80.02
68098;DHT22;54886;47.036;15.466;2023-07-30T04:20:40;20.08;80.63
68098;DHT22;54886;47.036;15.466;2023-07-30T04:23:05;19.97;80.87
68098;DHT22;54886;47.036;15.466;2023-07-30T04:25:31;19.90;80.68
68098;DHT22;54886;47.036;15.466;2023-07-30T04:27:57;19.92;80.50
68098;DHT22;54886;47.036;15.466;2023-07-30T04:30:22;19.92;79.45
68098;DHT22;54886;47.036;15.466;2023-07-30T04:36:09;19.96;80.13
68098;DHT22;54886;47.036;15.466;2023-07-30T04:38:35;19.96;80.14
68098;DHT22;54886;47.036;15.466;2023-07-30T04:41:01;19.92;79.62
68098;DHT22;54886;47.036;15.466;2023-07-30T04:43:27;19.90;80.36
68098;DHT22;54886;47.036;15.466;2023-07-30T04:49:14;19.89;79.20
68098;DHT22;54886;47.036;15.466;2023-07-30T04:51:40;19.87;81.48
68098;DHT22;54886;47.036;15.466;2023-07-30T04:54:06;19.83;80.84
68098;DHT22;54886;47.036;15.466;2023-07-30T04:56:32;19.79;80.84
68098;DHT22;54886;47.036;15.466;2023-07-30T05:02:19;19.79;81.27
68098;DHT22;54886;47.036;15.466;2023-07-30T05:04:44;19.79;81.93
68098;DHT22;54886;47.036;15.466;2023-07-30T05:07:10;19.83;80.56
68098;DHT22;54886;47.036;15.466;2023-07-30T05:09:36;19.82;81.91
68098;DHT22;54886;47.036;15.466;2023-07-30T05:12:02;19.82;80.67
68098;DHT22;54886;47.036;15.466;2023-07-30T05:14:27;19.76;82.80
68098;DHT22;54886;47.036;15.466;2023-07-30T05:16:53;19.79;80.75
68098;DHT22;54886;47.036;15.466;2023-07-30T05:19:18;19.79;82.21
68098;DHT22;54886;47.036;15.466;2023-07-30T05:21:44;19.79;80.88
68098;DHT22;54886;47.036;15.466;2023-07-30T05:27:38;19.79;80.16
68098;DHT22;54886;47.036;15.466;2023-07-30T05:30:04;19.75;81.43
68098;DHT22;54886;47.036;15.466;2023-07-30T05:32:30;19.72;80.63
68098;DHT22;54886;47.036;15.466;2023-07-30T05:34:55;19.74;80.56
68098;DHT22;54886;47.036;15.466;2023-07-30T05:37:21;19.79;78.40
68098;DHT22;54886;47.036;15.466;2023-07-30T05:43:09;19.81;79.52
68098;DHT22;54886;47.036;15.466;2023-07-30T05:45:35;19.83;78.90
68098;DHT22;54886;47.036;15.466;2023-07-30T05:48:01;19.82;81.08
68098;DHT22;54886;47.036;15.466;2023-07-30T05:50:26;19.82;81.34
68098;DHT22;54886;47.036;15.466;2023-07-30T05:52:52;19.85;78.04
68098;DHT22;54886;47.036;15.466;2023-07-30T05:55:17;19.87;81.58
68098;DHT22;54886;47.036;15.466;2023-07-30T05:57:43;19.87;79.27
68098;DHT22;54886;47.036;15.466;2023-07-30T06:03:30;19.85;81.38
68098;DHT22;54886;47.036;15.466;2023-07-30T06:05:56;19.85;80.82
68098;DHT22;54886;47.036;15.466;2023-07-30T06:08:22;19.85;83.36
68098;DHT22;54886;47.036;15.466;2023-07-30T06:10:47;19.86;80.91
68098;DHT22;54886;47.036;15.466;2023-07-30T06:13:13;19.89;82.45
68098;DHT22;54886;47.036;15.466;2023-07-30T06:19:00;19.89;83.85
68098;DHT22;54886;47.036;15.466;2023-07-30T06:21:26;19.89;83.58
68098;DHT22;54886;47.036;15.466;2023-07-30T06:27:13;19.87;82.89
68098;DHT22;54886;47.036;15.466;2023-07-30T06:33:00;19.87;83.02
68098;DHT22;54886;47.036;15.466;2023-07-30T06:38:48;19.89;82.46
68098;DHT22;54886;47.036;15.466;2023-07-30T06:44:35;19.92;83.17
68098;DHT22;54886;47.036;15.466;2023-07-30T06:47:00;19.90;81.03
68098;DHT22;54886;47.036;15.466;2023-07-30T06:49:26;19.93;83.13
68098;DHT22;54886;47.036;15.466;2023-07-30T06:55:13;19.92;83.21
68098;DHT22;54886;47.036;15.466;2023-07-30T06:57:39;19.92;82.24
68098;DHT22;54886;47.036;15.466;2023-07-30T07:00:05;19.93;82.89
68098;DHT22;54886;47.036;15.466;2023-07-30T07:02:31;19.90;82.69
68098;DHT22;54886;47.036;15.466;2023-07-30T07:04:58;19.92;81.66
68098;DHT22;54886;47.036;15.466;2023-07-30T07:10:45;19.93;82.14
68098;DHT22;54886;47.036;15.466;2023-07-30T07:13:10;19.96;83.31
68098;DHT22;54886;47.036;15.466;2023-07-30T07:15:41;20.00;83.05
68098;DHT22;54886;47.036;15.466;2023-07-30T07:18:07;20.02;83.82
68098;DHT22;54886;47.036;15.466;2023-07-30T07:20:32;20.03;81.87
68098;DHT22;54886;47.036;15.466;2023-07-30T07:22:58;20.05;83.38
68098;DHT22;54886;47.036;15.466;2023-07-30T07:28:45;20.24;81.75
68098;DHT22;54886;47.036;15.466;2023-07-30T07:31:36;20.33;82.57
68098;DHT22;54886;47.036;15.466;2023-07-30T07:34:01;20.39;81.57
68098;DHT22;54886;47.036;15.466;2023-07-30T07:39:49;20.50;80.77
68098;DHT22;54886;47.036;15.466;2023-07-30T07:45:35;20.54;79.71
68098;DHT22;54886;47.036;15.466;2023-07-30T07:51:23;20.59;81.16
68098;DHT22;54886;47.036;15.466;2023-07-30T07:53:48;20.68;80.35
68098;DHT22;54886;47.036;15.466;2023-07-30T07:56:14;20.72;80.54
68098;DHT22;54886;47.036;15.466;2023-07-30T07:58:40;20.78;80.89
68098;DHT22;54886;47.036;15.466;2023-07-30T08:01:05;20.86;81.82
68098;DHT22;54886;47.036;15.466;2023-07-30T08:06:52;21.16;81.26
68098;DHT22;54886;47.036;15.466;2023-07-30T08:09:18;21.23;79.88
68098;DHT22;54886;47.036;15.466;2023-07-30T08:11:44;21.19;78.63
68098;DHT22;54886;47.036;15.466;2023-07-30T08:17:31;21.19;78.68
68098;DHT22;54886;47.036;15.466;2023-07-30T08:19:56;21.19;77.65
68098;DHT22;54886;47.036;15.466;2023-07-30T08:22:22;21.20;79.69
68098;DHT22;54886;47.036;15.466;2023-07-30T08:24:48;21.24;80.08
68098;DHT22;54886;47.036;15.466;2023-07-30T08:27:13;21.34;79.65
68098;DHT22;54886;47.036;15.466;2023-07-30T08:29:39;21.39;79.62
68098;DHT22;54886;47.036;15.466;2023-07-30T08:32:05;21.40;77.95
68098;DHT22;54886;47.036;15.466;2023-07-30T08:37:53;21.53;80.17
68098;DHT22;54886;47.036;15.466;2023-07-30T08:40:21;21.62;78.66
68098;DHT22;54886;47.036;15.466;2023-07-30T08:42:50;21.64;77.00
68098;DHT22;54886;47.036;15.466;2023-07-30T08:45:16;21.67;78.01
68098;DHT22;54886;47.036;15.466;2023-07-30T08:47:42;21.71;79.38
68098;DHT22;54886;47.036;15.466;2023-07-30T08:50:08;21.84;79.17
68098;DHT22;54886;47.036;15.466;2023-07-30T08:52:35;21.88;78.47
68098;DHT22;54886;47.036;15.466;2023-07-30T08:58:25;22.08;78.24
68098;DHT22;54886;47.036;15.466;2023-07-30T09:00:53;22.12;77.03
68098;DHT22;54886;47.036;15.466;2023-07-30T09:03:20;22.09;77.23
68098;DHT22;54886;47.036;15.466;2023-07-30T09:05:48;22.12;76.49
68098;DHT22;54886;47.036;15.466;2023-07-30T09:08:14;22.22;77.12
68098;DHT22;54886;47.036;15.466;2023-07-30T09:10:41;22.30;77.46
68098;DHT22;54886;47.036;15.466;2023-07-30T09:13:06;22.33;76.82
68098;DHT22;54886;47.036;15.466;2023-07-30T09:18:55;22.46;75.74
68098;DHT22;54886;47.036;15.466;2023-07-30T09:21:32;22.46;74.18
68098;DHT22;54886;47.036;15.466;2023-07-30T09:27:23;22.53;73.58
68098;DHT22;54886;47.036;15.466;2023-07-30T09:33:18;22.57;74.75
68098;DHT22;54886;47.036;15.466;2023-07-30T09:39:18;22.68;74.01
68098;DHT22;54886;47.036;15.466;2023-07-30T09:45:25;22.78;73.75
68098;DHT22;54886;47.036;15.466;2023-07-30T09:47:52;22.87;74.64
68098;DHT22;54886;47.036;15.466;2023-07-30T09:53:39;22.92;72.95
68098;DHT22;54886;47.036;15.466;2023-07-30T09:59:26;23.08;73.38
68098;DHT22;54886;47.036;15.466;2023-07-30T10:01:52;23.16;72.79
68098;DHT22;54886;47.036;15.466;2023-07-30T10:04:22;23.24;73.73
68098;DHT22;54886;47.036;15.466;2023-07-30T10:10:10;23.33;71.01
68098;DHT22;54886;47.036;15.466;2023-07-30T10:15:57;23.46;72.01
68098;DHT22;54886;47.036;15.466;2023-07-30T10:18:38;23.53;70.80
68098;DHT22;54886;47.036;15.466;2023-07-30T10:24:26;23.64;70.15
68098;DHT22;54886;47.036;15.466;2023-07-30T10:30:16;23.70;69.40
68098;DHT22;54886;47.036;15.466;2023-07-30T10:36:03;23.92;71.88
68098;DHT22;54886;47.036;15.466;2023-07-30T10:38:29;24.02;70.19
68098;DHT22;54886;47.036;15.466;2023-07-30T10:41:10;24.06;69.55
68098;DHT22;54886;47.036;15.466;2023-07-30T10:43:38;24.13;68.11
68098;DHT22;54886;47.036;15.466;2023-07-30T10:46:04;24.09;67.57
68098;DHT22;54886;47.036;15.466;2023-07-30T10:51:53;24.01;66.01
68098;DHT22;54886;47.036;15.466;2023-07-30T10:54:19;23.98;67.48
68098;DHT22;54886;47.036;15.466;2023-07-30T11:00:07;23.92;67.64
68098;DHT22;54886;47.036;15.466;2023-07-30T11:05:55;23.85;66.48
68098;DHT22;54886;47.036;15.466;2023-07-30T11:11:42;23.86;67.03
68098;DHT22;54886;47.036;15.466;2023-07-30T11:14:14;23.91;66.92
68098;DHT22;54886;47.036;15.466;2023-07-30T11:16:48;24.02;66.57
68098;DHT22;54886;47.036;15.466;2023-07-30T11:22:36;24.23;65.48
68098;DHT22;54886;47.036;15.466;2023-07-30T11:25:02;24.29;66.49
68098;DHT22;54886;47.036;15.466;2023-07-30T11:30:58;24.44;65.56
68098;DHT22;54886;47.036;15.466;2023-07-30T11:36:46;24.46;63.52
68098;DHT22;54886;47.036;15.466;2023-07-30T11:42:34;24.52;64.13
68098;DHT22;54886;47.036;15.466;2023-07-30T11:48:23;24.66;65.23
68098;DHT22;54886;47.036;15.466;2023-07-30T11:50:51;24.73;65.14
68098;DHT22;54886;47.036;15.466;2023-07-30T11:53:18;24.81;64.43
68098;DHT22;54886;47.036;15.466;2023-07-30T11:59:06;24.96;62.18
68098;DHT22;54886;47.036;15.466;2023-07-30T12:01:34;24.99;62.37
68098;DHT22;54886;47.036;15.466;2023-07-30T12:07:23;25.09;60.93
68098;DHT22;54886;47.036;15.466;2023-07-30T12:13:18;25.15;60.97
68098;DHT22;54886;47.036;15.466;2023-07-30T12:19:06;25.20;61.47
68098;DHT22;54886;47.036;15.466;2023-07-30T12:21:32;25.22;62.70
68098;DHT22;54886;47.036;15.466;2023-07-30T12:27:20;25.19;62.58
68098;DHT22;54886;47.036;15.466;2023-07-30T12:33:27;25.25;61.71
68098;DHT22;54886;47.036;15.466;2023-07-30T12:39:14;25.36;61.41
68098;DHT22;54886;47.036;15.466;2023-07-30T12:41:40;25.40;61.31
68098;DHT22;54886;47.036;15.466;2023-07-30T12:44:06;25.50;62.37
68098;DHT22;54886;47.036;15.466;2023-07-30T12:46:32;25.56;61.19
68098;DHT22;54886;47.036;15.466;2023-07-30T12:48:58;25.69;63.08
68098;DHT22;54886;47.036;15.466;2023-07-30T12:54:51;25.77;60.60
68098;DHT22;54886;47.036;15.466;2023-07-30T12:57:17;25.87;61.22
68098;DHT22;54886;47.036;15.466;2023-07-30T12:59:42;25.92;61.78
68098;DHT22;54886;47.036;15.466;2023-07-30T13:02:08;25.97;61.33
68098;DHT22;54886;47.036;15.466;2023-07-30T13:04:33;26.01;61.23
68098;DHT22;54886;47.036;15.466;2023-07-30T13:10:21;26.04;61.37
68098;DHT22;54886;47.036;15.466;2023-07-30T13:12:46;26.01;59.50
68098;DHT22;54886;47.036;15.466;2023-07-30T13:15:12;26.02;60.97
68098;DHT22;54886;47.036;15.466;2023-07-30T13:17:38;26.08;61.21
68098;DHT22;54886;47.036;15.466;2023-07-30T13:20:05;26.15;61.11
68098;DHT22;54886;47.036;15.466;2023-07-30T13:22:30;26.19;60.81
68098;DHT22;54886;47.036;15.466;2023-07-30T13:24:56;26.29;58.53
68098;DHT22;54886;47.036;15.466;2023-07-30T13:27:22;26.33;59.58
68098;DHT22;54886;47.036;15.466;2023-07-30T13:29:47;26.39;60.39
68098;DHT22;54886;47.036;15.466;2023-07-30T13:35:54;26.52;59.61
68098;DHT22;54886;47.036;15.466;2023-07-30T13:38:20;26.57;57.70
68098;DHT22;54886;47.036;15.466;2023-07-30T13:40:50;26.59;59.29
68098;DHT22;54886;47.036;15.466;2023-07-30T13:43:16;26.63;57.90
68098;DHT22;54886;47.036;15.466;2023-07-30T13:45:41;26.66;59.23
68098;DHT22;54886;47.036;15.466;2023-07-30T13:48:07;26.69;58.87
68098;DHT22;54886;47.036;15.466;2023-07-30T13:50:34;26.73;59.08
68098;DHT22;54886;47.036;15.466;2023-07-30T13:56:21;26.84;57.51
68098;DHT22;54886;47.036;15.466;2023-07-30T13:58:47;26.84;58.19
68098;DHT22;54886;47.036;15.466;2023-07-30T14:01:13;26.88;56.81
68098;DHT22;54886;47.036;15.466;2023-07-30T14:03:40;26.90;58.53
68098;DHT22;54886;47.036;15.466;2023-07-30T14:06:06;26.97;58.95
68098;DHT22;54886;47.036;15.466;2023-07-30T14:08:31;26.98;56.91
68098;DHT22;54886;47.036;15.466;2023-07-30T14:10:57;27.00;58.25
68098;DHT22;54886;47.036;15.466;2023-07-30T14:16:46;27.02;56.96
68098;DHT22;54886;47.036;15.466;2023-07-30T14:19:11;27.04;58.30
68098;DHT22;54886;47.036;15.466;2023-07-30T14:21:37;27.09;57.56
68098;DHT22;54886;47.036;15.466;2023-07-30T14:27:25;27.19;57.40
68098;DHT22;54886;47.036;15.466;2023-07-30T14:29:51;27.22;57.52
68098;DHT22;54886;47.036;15.466;2023-07-30T14:32:18;27.22;57.00
68098;DHT22;54886;47.036;15.466;2023-07-30T14:34:44;27.19;57.38
68098;DHT22;54886;47.036;15.466;2023-07-30T14:37:10;27.28;59.10
68098;DHT22;54886;47.036;15.466;2023-07-30T14:39:35;27.29;56.73
68098;DHT22;54886;47.036;15.466;2023-07-30T14:42:01;27.29;56.59
68098;DHT22;54886;47.036;15.466;2023-07-30T14:44:27;27.28;58.14
68098;DHT22;54886;47.036;15.466;2023-07-30T14:46:52;27.29;58.07
68098;DHT22;54886;47.036;15.466;2023-07-30T14:52:40;27.38;56.44
68098;DHT22;54886;47.036;15.466;2023-07-30T14:55:06;27.36;58.06
68098;DHT22;54886;47.036;15.466;2023-07-30T14:57:31;27.35;58.85
68098;DHT22;54886;47.036;15.466;2023-07-30T15:03:20;27.16;59.41
68098;DHT22;54886;47.036;15.466;2023-07-30T15:09:07;26.91;57.51
68098;DHT22;54886;47.036;15.466;2023-07-30T15:11:33;26.84;58.38
68098;DHT22;54886;47.036;15.466;2023-07-30T15:17:20;26.40;55.73
68098;DHT22;54886;47.036;15.466;2023-07-30T15:23:07;26.22;56.13
68098;DHT22;54886;47.036;15.466;2023-07-30T15:28:55;26.14;57.66
68098;DHT22;54886;47.036;15.466;2023-07-30T15:31:21;26.11;59.31
68098;DHT22;54886;47.036;15.466;2023-07-30T15:33:46;26.06;61.18
68098;DHT22;54886;47.036;15.466;2023-07-30T15:36:12;26.08;62.39
68098;DHT22;54886;47.036;15.466;2023-07-30T15:38:38;26.06;62.03
68098;DHT22;54886;47.036;15.466;2023-07-30T15:44:25;26.09;60.93
68098;DHT22;54886;47.036;15.466;2023-07-30T15:46:51;26.04;61.85
68098;DHT22;54886;47.036;15.466;2023-07-30T15:49:17;26.02;63.35
68098;DHT22;54886;47.036;15.466;2023-07-30T15:51:42;25.97;63.50
68098;DHT22;54886;47.036;15.466;2023-07-30T15:54:08;26.04;62.83
68098;DHT22;54886;47.036;15.466;2023-07-30T15:56:33;26.01;62.94
68098;DHT22;54886;47.036;15.466;2023-07-30T15:58:59;25.94;63.49
68098;DHT22;54886;47.036;15.466;2023-07-30T16:04:46;25.85;63.22
68098;DHT22;54886;47.036;15.466;2023-07-30T16:07:12;25.81;63.34
68098;DHT22;54886;47.036;15.466;2023-07-30T16:09:39;25.84;63.33
68098;DHT22;54886;47.036;15.466;2023-07-30T16:12:05;25.81;63.84
68098;DHT22;54886;47.036;15.466;2023-07-30T16:14:31;25.75;64.65
68098;DHT22;54886;47.036;15.466;2023-07-30T16:16:57;25.77;63.93
68098;DHT22;54886;47.036;15.466;2023-07-30T16:22:44;25.78;63.42
68098;DHT22;54886;47.036;15.466;2023-07-30T16:25:09;25.70;64.36
68098;DHT22;54886;47.036;15.466;2023-07-30T16:27:35;25.56;64.97
68098;DHT22;54886;47.036;15.466;2023-07-30T16:30:02;25.63;65.06
68098;DHT22;54886;47.036;15.466;2023-07-30T16:32:28;25.63;64.06
68098;DHT22;54886;47.036;15.466;2023-07-30T16:34:54;25.62;64.18
68098;DHT22;54886;47.036;15.466;2023-07-30T16:40:42;25.63;62.38
68098;DHT22;54886;47.036;15.466;2023-07-30T16:43:08;25.59;63.53
68098;DHT22;54886;47.036;15.466;2023-07-30T16:45:33;25.49;64.59
68098;DHT22;54886;47.036;15.466;2023-07-30T16:48:00;25.50;64.64
68098;DHT22;54886;47.036;15.466;2023-07-30T16:50:26;25.49;64.11
68098;DHT22;54886;47.036;15.466;2023-07-30T16:52:51;25.39;62.84
68098;DHT22;54886;47.036;15.466;2023-07-30T16:55:17;25.30;63.13
68098;DHT22;54886;47.036;15.466;2023-07-30T16:57:43;25.19;63.44
68098;DHT22;54886;47.036;15.466;2023-07-30T17:00:09;25.19;62.75
68098;DHT22;54886;47.036;15.466;2023-07-30T17:06:00;25.05;62.35
68098;DHT22;54886;47.036;15.466;2023-07-30T17:08:26;24.99;62.50
68098;DHT22;54886;47.036;15.466;2023-07-30T17:10:52;24.85;61.97
68098;DHT22;54886;47.036;15.466;2023-07-30T17:13:17;24.85;62.59
68098;DHT22;54886;47.036;15.466;2023-07-30T17:15:43;24.80;63.49
68098;DHT22;54886;47.036;15.466;2023-07-30T17:21:30;24.67;64.64
68098;DHT22;54886;47.036;15.466;2023-07-30T17:23:56;24.56;64.14
68098;DHT22;54886;47.036;15.466;2023-07-30T17:26:22;24.50;63.97
68098;DHT22;54886;47.036;15.466;2023-07-30T17:28:48;24.49;65.23
68098;DHT22;54886;47.036;15.466;2023-07-30T17:31:13;24.57;65.51
68098;DHT22;54886;47.036;15.466;2023-07-30T17:33:39;24.56;66.43
68098;DHT22;54886;47.036;15.466;2023-07-30T17:36:05;24.52;66.71
68098;DHT22;54886;47.036;15.466;2023-07-30T17:41:54;24.49;67.11
68098;DHT22;54886;47.036;15.466;2023-07-30T17:44:20;24.53;66.90
68098;DHT22;54886;47.036;15.466;2023-07-30T17:46:46;24.29;67.88
68098;DHT22;54886;47.036;15.466;2023-07-30T17:52:33;24.19;67.12
68098;DHT22;54886;47.036;15.466;2023-07-30T17:54:58;24.11;67.00
68098;DHT22;54886;47.036;15.466;2023-07-30T17:57:24;24.02;66.74
68098;DHT22;54886;47.036;15.466;2023-07-30T17:59:50;23.89;66.99
68098;DHT22;54886;47.036;15.466;2023-07-30T18:05:37;23.89;66.88
68098;DHT22;54886;47.036;15.466;2023-07-30T18:11:25;23.74;66.43
68098;DHT22;54886;47.036;15.466;2023-07-30T18:17:12;23.70;66.41
68098;DHT22;54886;47.036;15.466;2023-07-30T18:23:00;23.67;67.00
68098;DHT22;54886;47.036;15.466;2023-07-30T18:25:26;23.61;67.39
68098;DHT22;54886;47.036;15.466;2023-07-30T18:27:51;23.46;67.76
68098;DHT22;54886;47.036;15.466;2023-07-30T18:30:17;23.30;67.26
68098;DHT22;54886;47.036;15.466;2023-07-30T18:32:43;23.30;67.25
68098;DHT22;54886;47.036;15.466;2023-07-30T18:35:10;23.37;67.50
68098;DHT22;54886;47.036;15.466;2023-07-30T18:37:36;23.42;67.41
68098;DHT22;54886;47.036;15.466;2023-07-30T18:43:23;23.40;68.08
68098;DHT22;54886;47.036;15.466;2023-07-30T18:45:50;23.43;68.10
68098;DHT22;54886;47.036;15.466;2023-07-30T18:48:16;23.39;68.28
68098;DHT22;54886;47.036;15.466;2023-07-30T18:54:05;23.13;68.87
68098;DHT22;54886;47.036;15.466;2023-07-30T18:56:31;23.19;68.91
68098;DHT22;54886;47.036;15.466;2023-07-30T18:58:56;23.06;70.26
68098;DHT22;54886;47.036;15.466;2023-07-30T19:01:22;23.06;70.36
68098;DHT22;54886;47.036;15.466;2023-07-30T19:03:47;23.06;70.26
68098;DHT22;54886;47.036;15.466;2023-07-30T19:06:13;23.16;69.63
68098;DHT22;54886;47.036;15.466;2023-07-30T19:08:38;23.05;70.52
68098;DHT22;54886;47.036;15.466;2023-07-30T19:14:26;23.08;70.50
68098;DHT22;54886;47.036;15.466;2023-07-30T19:16:52;22.90;70.48
68098;DHT22;54886;47.036;15.466;2023-07-30T19:19:18;22.95;69.81
68098;DHT22;54886;47.036;15.466;2023-07-30T19:21:43;23.01;70.39
68098;DHT22;54886;47.036;15.466;2023-07-30T19:24:10;23.02;69.84
68098;DHT22;54886;47.036;15.466;2023-07-30T19:26:36;23.02;70.41
68098;DHT22;54886;47.036;15.466;2023-07-30T19:29:01;23.05;70.24
68098;DHT22;54886;47.036;15.466;2023-07-30T19:31:37;23.05;69.99
68098;DHT22;54886;47.036;15.466;2023-07-30T19:34:10;23.01;70.96
68098;DHT22;54886;47.036;15.466;2023-07-30T19:40:12;23.08;69.95
68098;DHT22;54886;47.036;15.466;2023-07-30T19:42:37;23.01;70.20
68098;DHT22;54886;47.036;15.466;2023-07-30T19:45:03;23.02;71.00
68098;DHT22;54886;47.036;15.466;2023-07-30T19:47:29;22.95;70.30
68098;DHT22;54886;47.036;15.466;2023-07-30T19:49:55;22.90;71.51
68098;DHT22;54886;47.036;15.466;2023-07-30T19:52:21;22.92;70.52
68098;DHT22;54886;47.036;15.466;2023-07-30T19:54:46;22.81;71.62
68098;DHT22;54886;47.036;15.466;2023-07-30T20:00:33;22.71;71.16
68098;DHT22;54886;47.036;15.466;2023-07-30T20:02:59;22.75;70.99
68098;DHT22;54886;47.036;15.466;2023-07-30T20:08:46;22.79;70.36
68098;DHT22;54886;47.036;15.466;2023-07-30T20:14:34;22.75;71.49
68098;DHT22;54886;47.036;15.466;2023-07-30T20:20:21;22.60;72.70
68098;DHT22;54886;47.036;15.466;2023-07-30T20:26:28;22.43;71.57
68098;DHT22;54886;47.036;15.466;2023-07-30T20:28:54;22.46;71.80
68098;DHT22;54886;47.036;15.466;2023-07-30T20:31:24;22.43;72.36
68098;DHT22;54886;47.036;15.466;2023-07-30T20:33:49;22.41;72.32
68098;DHT22;54886;47.036;15.466;2023-07-30T20:36:15;22.46;71.23
68098;DHT22;54886;47.036;15.466;2023-07-30T20:38:41;22.43;72.22
68098;DHT22;54886;47.036;15.466;2023-07-30T20:41:08;22.39;70.91
68098;DHT22;54886;47.036;15.466;2023-07-30T20:46:56;22.29;72.66
68098;DHT22;54886;47.036;15.466;2023-07-30T20:49:23;22.28;71.95
68098;DHT22;54886;47.036;15.466;2023-07-30T20:51:49;22.23;71.64
68098;DHT22;54886;47.036;15.466;2023-07-30T20:54:16;22.23;72.38
68098;DHT22;54886;47.036;15.466;2023-07-30T20:56:43;22.10;72.32
68098;DHT22;54886;47.036;15.466;2023-07-30T21:02:30;22.03;73.58
68098;DHT22;54886;47.036;15.466;2023-07-30T21:04:56;21.96;74.15
68098;DHT22;54886;47.036;15.466;2023-07-30T21:07:22;21.88;73.13